Terminal Aerodrome Forecast
Issued by NWS

Home | Current Version | Previous Version | Text Only | Print | Product List | Glossary Off
Versions: 1 2 3 4 5 6 7 8 9 10 11 12 13 14 15 16 17 18 19

000
FTUS43 KMPX 290600 AAA
TAFRWF
TAF AMD
KRWF 290635Z 2907/3006 33009KT P6SM BKN008
      TEMPO 2907/2910 SCT008 OVC060
     FM291000 35008KT P6SM BKN008 OVC018
     FM291500 05010KT P6SM VCSH SCT007 OVC018
     FM292100 06008KT P6SM SCT020 BKN040=

USA.gov is the U.S. government's official web portal to all federal, state and local government web resources and services.